Time;durP1;ratioP1;P1;durP2;ratioP2;P2;SDS_P1;SDS_P2;PMS_P1;PMS_P2;Temp;Humidity;BMP_temperature;BMP_pressure;BME280_temperature;BME280_humidity;BME280_pressure;Samples;Min_cycle;Max_cycle;Signal;HPM_P1;HPM_P2
2021/11/30 00:00:06;;;;;;;10.93;3.86;;;;;;;12.98;75.42;98494.50;466707;113;930559;-85
2021/11/30 00:01:11;;;;;;;8.17;3.67;;;;;;;12.96;75.43;98489.30;466037;113;922968;-86
2021/11/30 00:02:16;;;;;;;13.05;3.92;;;;;;;12.96;75.34;98497.51;465898;113;922623;-84
2021/11/30 00:03:19;;;;;;;8.06;4.75;;;;;;;12.95;75.42;98491.25;466733;113;922846;-82
2021/11/30 00:04:28;;;;;;;7.47;4.19;;;;;;;12.95;75.39;98493.16;465316;113;923273;-85
2021/11/30 00:05:28;;;;;;;8.04;3.92;;;;;;;12.93;75.39;98498.91;466092;113;930573;-86
2021/11/30 00:06:33;;;;;;;10.70;4.04;;;;;;;12.92;75.39;98497.27;466197;113;922627;-84
2021/11/30 00:07:38;;;;;;;7.85;3.63;;;;;;;12.93;75.35;98503.55;465865;112;931004;-84
2021/11/30 00:08:42;;;;;;;7.44;3.65;;;;;;;12.91;75.37;98506.56;465778;112;923035;-83
2021/11/30 00:10:50;;;;;;;7.95;3.54;;;;;;;12.90;75.35;98499.45;465451;113;922653;-83
2021/11/30 00:11:53;;;;;;;7.90;3.96;;;;;;;12.90;75.32;98506.86;467195;113;922593;-82
2021/11/30 00:12:57;;;;;;;8.34;3.93;;;;;;;12.89;75.40;98508.78;466517;113;930604;-85
2021/11/30 00:14:00;;;;;;;10.84;3.44;;;;;;;12.89;75.44;98507.95;465113;112;930634;-84
2021/11/30 00:15:04;;;;;;;9.07;4.32;;;;;;;12.88;75.42;98507.13;465217;113;923089;-84
2021/11/30 00:16:10;;;;;;;9.79;4.28;;;;;;;12.88;75.38;98503.58;465605;112;922555;-84
2021/11/30 00:17:14;;;;;;;9.21;3.32;;;;;;;12.87;75.38;98499.20;466906;112;922959;-85
2021/11/30 00:18:19;;;;;;;6.36;3.28;;;;;;;12.86;75.32;98486.62;465361;111;922467;-84
2021/11/30 00:19:22;;;;;;;8.09;3.50;;;;;;;12.83;75.31;98479.81;466030;113;922713;-84
2021/11/30 00:20:28;;;;;;;7.03;3.31;;;;;;;12.83;75.41;98482.55;464977;112;930382;-85
2021/11/30 00:21:31;;;;;;;10.21;3.42;;;;;;;12.83;75.42;98482.55;465742;111;922633;-85
2021/11/30 00:22:34;;;;;;;8.77;4.00;;;;;;;12.84;75.42;98483.37;465347;113;922580;-85
2021/11/30 00:23:38;;;;;;;6.74;3.41;;;;;;;12.86;75.47;98484.70;466328;113;922931;-84
2021/11/30 00:24:42;;;;;;;6.49;2.90;;;;;;;12.86;75.41;98483.88;465652;113;922413;-84
2021/11/30 00:25:47;;;;;;;7.89;2.83;;;;;;;12.86;75.39;98481.97;466260;112;922461;-85
2021/11/30 00:26:51;;;;;;;6.83;3.57;;;;;;;12.84;75.33;98478.72;457246;115;922612;-84
2021/11/30 00:27:54;;;;;;;6.62;2.91;;;;;;;12.84;75.33;98484.19;456725;113;930556;-83
2021/11/30 00:28:58;;;;;;;9.55;3.16;;;;;;;12.85;75.33;98484.98;466150;113;922547;-83
2021/11/30 00:30:01;;;;;;;6.84;3.41;;;;;;;12.86;75.39;98481.16;465607;112;930460;-84
2021/11/30 00:31:05;;;;;;;7.14;2.87;;;;;;;12.85;75.44;98480.33;466159;113;930829;-86
2021/11/30 00:32:09;;;;;;;8.14;3.22;;;;;;;12.87;75.38;98477.32;466251;111;930282;-85
2021/11/30 00:33:13;;;;;;;8.21;2.86;;;;;;;12.87;75.30;98474.59;466842;113;922480;-84
2021/11/30 00:34:16;;;;;;;5.51;2.96;;;;;;;12.88;75.23;98468.02;465726;111;922478;-83
2021/11/30 00:35:25;;;;;;;4.42;2.42;;;;;;;12.88;75.20;98468.02;466159;113;930515;-85
2021/11/30 00:36:26;;;;;;;3.69;2.01;;;;;;;12.87;75.16;98477.32;466155;112;922757;-85
2021/11/30 00:37:29;;;;;;;6.67;2.96;;;;;;;12.86;75.15;98481.16;464502;113;922494;-85
2021/11/30 00:38:33;;;;;;;5.83;2.99;;;;;;;12.84;75.12;98470.52;467200;113;923616;-83
2021/11/30 00:39:36;;;;;;;8.30;2.92;;;;;;;12.83;75.13;98481.72;466341;113;923125;-84
2021/11/30 00:40:46;;;;;;;6.89;3.61;;;;;;;12.81;75.20;98475.70;467266;111;922629;-85
2021/11/30 00:41:52;;;;;;;6.82;2.84;;;;;;;12.81;75.24;98481.17;465610;113;922602;-85
2021/11/30 00:42:56;;;;;;;5.59;2.60;;;;;;;12.81;75.27;98484.73;466444;113;922739;-87
2021/11/30 00:44:00;;;;;;;8.50;3.41;;;;;;;12.81;75.30;98486.64;465878;112;923496;-85
2021/11/30 00:45:06;;;;;;;8.02;2.80;;;;;;;12.82;75.28;98491.02;465712;113;922845;-85
2021/11/30 00:46:17;;;;;;;13.80;3.42;;;;;;;12.82;75.33;98494.58;466256;113;922534;-85
2021/11/30 00:47:23;;;;;;;5.41;2.81;;;;;;;12.82;75.36;98497.31;466383;112;922312;-85
2021/11/30 00:48:30;;;;;;;8.14;2.94;;;;;;;12.82;75.41;98494.58;465619;113;922243;-84
2021/11/30 00:49:29;;;;;;;5.87;2.43;;;;;;;12.84;75.40;98507.98;466421;113;922741;-85
2021/11/30 00:50:33;;;;;;;8.01;3.55;;;;;;;12.84;75.46;98505.25;467691;111;922265;-84
2021/11/30 00:51:40;;;;;;;6.58;2.85;;;;;;;12.84;75.50;98507.98;467197;112;928823;-85
2021/11/30 00:52:45;;;;;;;4.43;2.48;;;;;;;12.83;75.49;98514.55;467564;113;922741;-84
2021/11/30 00:53:51;;;;;;;5.15;2.20;;;;;;;12.79;75.59;98517.00;467576;112;922542;-84
2021/11/30 00:54:55;;;;;;;5.01;2.37;;;;;;;12.76;75.83;98517.57;467789;112;922780;-83
2021/11/30 00:55:58;;;;;;;9.79;2.78;;;;;;;12.76;75.93;98514.02;467908;112;922712;-84
2021/11/30 00:57:02;;;;;;;6.58;2.38;;;;;;;12.75;76.02;98515.11;466892;111;922665;-84
2021/11/30 00:58:06;;;;;;;4.98;2.54;;;;;;;12.74;76.05;98513.47;467578;112;922952;-86
2021/11/30 00:59:10;;;;;;;5.08;2.73;;;;;;;12.72;76.13;98513.77;465683;112;922559;-85
2021/11/30 01:00:18;;;;;;;5.24;2.48;;;;;;;12.71;76.33;98516.77;455862;113;930564;-86
2021/11/30 01:01:21;;;;;;;5.93;2.44;;;;;;;12.70;76.49;98505.02;460347;112;923456;-86
2021/11/30 01:02:25;;;;;;;4.57;2.19;;;;;;;12.70;76.67;98512.39;467616;111;922677;-84
2021/11/30 01:03:29;;;;;;;4.59;2.01;;;;;;;12.69;76.82;98513.48;467183;112;923015;-85
2021/11/30 01:04:32;;;;;;;5.38;2.73;;;;;;;12.68;76.84;98507.20;468136;112;922768;-85
2021/11/30 01:05:37;;;;;;;5.23;3.09;;;;;;;12.69;76.94;98508.02;466372;111;922527;-85
2021/11/30 01:06:41;;;;;;;3.50;2.16;;;;;;;12.67;76.86;98508.31;466529;112;922407;-84
2021/11/30 01:07:44;;;;;;;4.52;2.39;;;;;;;12.65;76.89;98507.77;467095;112;922968;-83
2021/11/30 01:08:51;;;;;;;5.72;2.34;;;;;;;12.63;76.95;98509.13;466617;112;923164;-83
2021/11/30 01:09:54;;;;;;;5.21;2.79;;;;;;;12.62;76.95;98510.25;466584;111;930575;-84
2021/11/30 01:10:58;;;;;;;8.15;3.55;;;;;;;12.60;77.03;98521.45;465878;112;922785;-84
2021/11/30 01:12:02;;;;;;;7.18;3.39;;;;;;;12.58;77.03;98525.55;467476;112;922702;-85
2021/11/30 01:13:06;;;;;;;5.52;2.85;;;;;;;12.54;77.29;98523.38;467636;112;923174;-85
2021/11/30 01:14:09;;;;;;;6.29;4.22;;;;;;;12.49;77.60;98525.31;467207;112;930834;-83
2021/11/30 01:15:16;;;;;;;7.84;3.96;;;;;;;12.43;77.85;98524.50;465065;112;930906;-85
2021/11/30 01:16:20;;;;;;;6.21;4.53;;;;;;;12.37;78.29;98522.05;466712;111;930456;-84
2021/11/30 01:17:24;;;;;;;7.16;5.91;;;;;;;12.33;78.75;98520.98;468216;112;922980;-85
2021/11/30 01:18:28;;;;;;;7.66;6.72;;;;;;;12.29;78.97;98520.72;468229;111;922715;-84
2021/11/30 01:19:31;;;;;;;6.76;5.56;;;;;;;12.24;79.11;98525.38;466546;112;923757;-85
2021/11/30 01:20:36;;;;;;;5.19;3.79;;;;;;;12.21;79.31;98526.73;466507;111;922540;-86
2021/11/30 01:21:39;;;;;;;4.24;2.72;;;;;;;12.16;79.49;98523.19;467584;112;930592;-83
2021/11/30 01:22:43;;;;;;;4.19;2.64;;;;;;;12.11;79.57;98526.75;468019;112;922827;-84
2021/11/30 01:23:47;;;;;;;3.53;2.21;;;;;;;12.05;79.72;98534.12;466102;112;930380;-84
2021/11/30 01:24:52;;;;;;;4.47;2.65;;;;;;;12.02;79.87;98542.85;467272;112;923189;-83
2021/11/30 01:25:58;;;;;;;4.81;2.58;;;;;;;11.99;79.96;98535.22;467907;112;923125;-84
2021/11/30 01:27:02;;;;;;;5.02;2.64;;;;;;;11.96;79.98;98549.41;467909;111;922518;-84
2021/11/30 01:28:06;;;;;;;8.31;2.79;;;;;;;11.94;80.08;98550.78;468131;111;922493;-83
2021/11/30 01:29:09;;;;;;;5.29;2.55;;;;;;;11.91;80.23;98540.42;467504;112;922711;-85
2021/11/30 01:30:16;;;;;;;6.08;2.39;;;;;;;11.89;80.29;98548.88;466397;112;923127;-86
2021/11/30 01:31:19;;;;;;;4.26;2.33;;;;;;;11.88;80.40;98541.77;466801;110;922621;-84
2021/11/30 01:32:23;;;;;;;4.22;2.04;;;;;;;11.87;80.44;98551.05;466264;112;922983;-83
2021/11/30 01:33:26;;;;;;;5.22;2.48;;;;;;;11.86;80.47;98543.95;467285;112;930548;-84
2021/11/30 01:34:30;;;;;;;4.01;2.48;;;;;;;11.85;80.44;98552.44;467396;112;930571;-84
2021/11/30 01:35:34;;;;;;;4.18;2.41;;;;;;;11.84;80.45;98551.61;466962;111;922691;-84
2021/11/30 01:36:37;;;;;;;3.15;2.19;;;;;;;11.83;80.50;98557.34;467666;111;922528;-84
2021/11/30 01:37:42;;;;;;;4.38;2.29;;;;;;;11.82;80.53;98550.23;467259;112;922726;-83
2021/11/30 01:38:46;;;;;;;4.77;2.45;;;;;;;11.82;80.54;98550.23;467686;112;922375;-84
2021/11/30 01:39:50;;;;;;;4.55;2.34;;;;;;;11.82;80.54;98552.95;467839;112;922298;-85
2021/11/30 01:40:54;;;;;;;3.92;2.53;;;;;;;11.82;80.60;98552.95;468394;112;922596;-83
2021/11/30 01:41:59;;;;;;;3.01;2.59;;;;;;;11.82;80.64;98553.78;466484;112;930267;-84
2021/11/30 01:43:05;;;;;;;5.47;2.95;;;;;;;11.83;80.72;98551.88;467720;112;922887;-84
2021/11/30 01:44:12;;;;;;;3.87;2.42;;;;;;;11.83;80.69;98549.97;467862;112;930531;-84
2021/11/30 01:45:23;;;;;;;3.94;2.79;;;;;;;11.84;80.49;98554.34;467650;111;922408;-85
2021/11/30 01:46:29;;;;;;;4.33;2.82;;;;;;;11.83;80.39;98555.42;466951;112;922884;-84
2021/11/30 01:50:03;;;;;;;2.59;2.27;;;;;;;11.78;80.43;98558.16;460439;112;922794;-84
2021/11/30 01:51:07;;;;;;;4.13;2.58;;;;;;;11.77;80.47;98559.24;466385;111;922728;-84
2021/11/30 01:52:11;;;;;;;5.23;3.02;;;;;;;11.77;80.34;98558.42;466281;111;923344;-83
2021/11/30 01:53:15;;;;;;;3.64;2.52;;;;;;;11.75;80.34;98558.69;467347;111;930875;-85
2021/11/30 01:54:19;;;;;;;3.59;2.50;;;;;;;11.73;80.30;98555.42;467156;111;922665;-83
2021/11/30 01:55:22;;;;;;;5.64;2.43;;;;;;;11.72;80.25;98556.48;467544;111;922903;-83
2021/11/30 01:56:27;;;;;;;4.03;2.42;;;;;;;11.70;80.06;98553.19;467319;112;922845;-83
2021/11/30 01:57:30;;;;;;;4.56;2.35;;;;;;;11.67;79.99;98545.55;467545;112;922332;-84
2021/11/30 01:58:34;;;;;;;3.95;2.80;;;;;;;11.64;79.97;98538.71;466300;112;922753;-84
2021/11/30 01:59:37;;;;;;;2.84;2.41;;;;;;;11.62;79.95;98542.82;465802;112;930774;-84
2021/11/30 02:00:43;;;;;;;2.76;2.43;;;;;;;11.60;79.98;98544.99;465976;112;930316;-83
2021/11/30 02:01:47;;;;;;;3.34;2.35;;;;;;;11.58;80.05;98542.52;466311;112;923156;-81
2021/11/30 02:02:50;;;;;;;5.10;2.98;;;;;;;11.58;80.08;98547.16;466003;112;922542;-84
2021/11/30 02:03:54;;;;;;;4.55;2.66;;;;;;;11.57;80.02;98534.62;466936;111;923080;-87
2021/11/30 02:05:00;;;;;;;3.40;2.64;;;;;;;11.54;79.98;98552.34;465963;111;922740;-82
2021/11/30 02:06:04;;;;;;;3.14;2.39;;;;;;;11.54;79.95;98551.53;467391;112;922937;-82
2021/11/30 02:07:09;;;;;;;3.24;2.65;;;;;;;11.51;79.86;98555.63;465767;112;931233;-86
2021/11/30 02:08:12;;;;;;;6.00;3.03;;;;;;;11.50;79.75;98555.90;466651;111;922997;-83
2021/11/30 02:09:16;;;;;;;4.66;2.93;;;;;;;11.49;79.67;98554.25;466865;112;930653;-84
2021/11/30 02:10:20;;;;;;;4.59;3.23;;;;;;;11.47;79.64;98557.23;467407;112;930514;-84
2021/11/30 02:11:25;;;;;;;4.76;3.44;;;;;;;11.46;79.61;98555.63;466856;111;930713;-83
2021/11/30 02:12:28;;;;;;;8.37;3.47;;;;;;;11.46;79.64;98554.80;466454;111;930634;-82
2021/11/30 02:13:34;;;;;;;5.62;3.82;;;;;;;11.45;79.49;98569.53;467712;112;922596;-84
2021/11/30 02:14:39;;;;;;;5.24;3.42;;;;;;;11.45;79.32;98558.62;466584;112;922576;-83
2021/11/30 02:15:48;;;;;;;3.55;3.25;;;;;;;11.44;79.13;98562.43;465802;112;922764;-84
2021/11/30 02:16:48;;;;;;;5.22;3.96;;;;;;;11.43;79.10;98568.97;465511;112;923264;-82
2021/11/30 02:17:53;;;;;;;5.39;3.78;;;;;;;11.42;79.11;98570.05;467047;111;922960;-84
2021/11/30 02:19:00;;;;;;;5.30;3.81;;;;;;;11.41;79.15;98561.05;466963;111;922862;-83
2021/11/30 02:20:03;;;;;;;4.19;3.69;;;;;;;11.41;79.16;98568.44;462262;112;930770;-83
2021/11/30 02:21:07;;;;;;;7.46;4.22;;;;;;;11.41;79.15;98565.71;462463;112;922906;-83
2021/11/30 02:22:13;;;;;;;4.43;3.69;;;;;;;11.41;79.11;98566.50;467245;112;922745;-84
2021/11/30 02:23:30;;;;;;;5.28;4.13;;;;;;;11.42;79.03;98576.33;467494;112;922680;-83
2021/11/30 02:24:22;;;;;;;4.73;4.07;;;;;;;11.43;78.87;98577.16;463862;112;923245;-84
2021/11/30 02:25:25;;;;;;;5.80;4.64;;;;;;;11.43;78.77;98577.16;467150;112;922940;-83
2021/11/30 02:26:32;;;;;;;6.70;4.90;;;;;;;11.44;78.67;98581.53;465554;112;930163;-80
2021/11/30 02:27:37;;;;;;;6.02;4.88;;;;;;;11.44;78.58;98581.53;466720;112;922206;-82
2021/11/30 02:28:42;;;;;;;5.90;4.87;;;;;;;11.42;78.41;98598.16;467466;112;922517;-83
2021/11/30 02:29:46;;;;;;;5.65;4.94;;;;;;;11.42;78.28;98589.98;467119;112;922985;-82
2021/11/30 02:30:51;;;;;;;8.10;5.08;;;;;;;11.43;78.23;98604.45;466742;111;922686;-83
2021/11/30 02:31:54;;;;;;;5.75;5.25;;;;;;;11.41;78.21;98601.19;465957;112;922436;-84
2021/11/30 02:32:58;;;;;;;5.79;5.29;;;;;;;11.42;77.92;98600.89;465855;112;930648;-86
2021/11/30 02:34:04;;;;;;;6.24;5.66;;;;;;;11.43;77.92;98601.72;467875;112;923107;-83
2021/11/30 02:35:09;;;;;;;7.19;6.47;;;;;;;11.43;77.77;98616.18;466021;111;931063;-83
2021/11/30 02:36:31;;;;;;;7.93;7.24;;;;;;;11.43;77.40;98605.27;466112;112;922486;-82
2021/11/30 02:37:43;;;;;;;;;;;;;;;11.43;76.90;98616.18;472241;112;922472;-85
2021/11/30 02:38:39;;;;;;;10.57;6.58;;;;;;;11.42;76.63;98622.72;466144;111;922598;-84
2021/11/30 02:39:44;;;;;;;8.72;7.92;;;;;;;11.39;75.91;98622.45;466629;111;923052;-83
2021/11/30 02:40:48;;;;;;;8.04;7.44;;;;;;;11.36;75.47;98626.52;467403;112;922977;-84
2021/11/30 02:41:52;;;;;;;8.58;7.46;;;;;;;11.33;75.61;98631.70;468051;112;923017;-83
2021/11/30 02:42:56;;;;;;;8.17;7.57;;;;;;;11.30;75.71;98633.86;467255;111;923976;-85
2021/11/30 02:43:59;;;;;;;7.99;7.33;;;;;;;11.30;75.59;98633.86;467414;111;922846;-87
2021/11/30 02:45:03;;;;;;;9.41;8.51;;;;;;;11.30;75.47;98628.41;464939;112;922873;-83
2021/11/30 02:46:07;;;;;;;9.67;8.80;;;;;;;11.30;75.17;98624.89;466520;112;923222;-86
2021/11/30 02:47:13;;;;;;;9.39;8.51;;;;;;;11.30;74.79;98635.80;466084;112;922840;-83
2021/11/30 02:48:17;;;;;;;9.71;8.98;;;;;;;11.28;74.82;98635.23;467542;111;922820;-83
2021/11/30 02:49:24;;;;;;;9.72;8.87;;;;;;;11.27;74.62;98642.59;467450;112;922730;-83
2021/11/30 02:50:28;;;;;;;10.23;9.41;;;;;;;11.27;74.62;98649.95;466487;111;924196;-85
2021/11/30 02:51:33;;;;;;;9.75;8.97;;;;;;;11.25;74.41;98655.67;467246;112;922519;-84
2021/11/30 02:52:37;;;;;;;10.16;9.48;;;;;;;11.24;74.15;98650.50;465386;112;922516;-84
2021/11/30 02:53:40;;;;;;;10.68;9.88;;;;;;;11.23;73.89;98657.86;466460;112;930554;-84
2021/11/30 02:54:46;;;;;;;10.59;9.75;;;;;;;11.22;73.70;98658.13;467918;112;923177;-86
2021/11/30 02:55:49;;;;;;;10.36;9.56;;;;;;;11.20;73.55;98661.11;466862;112;923179;-83
2021/11/30 02:56:55;;;;;;;9.13;8.43;;;;;;;11.17;73.24;98656.20;468203;111;922537;-82
2021/11/30 02:57:59;;;;;;;10.64;9.84;;;;;;;11.15;72.41;98658.36;467429;112;922774;-85
2021/11/30 02:59:03;;;;;;;9.69;8.93;;;;;;;11.12;72.09;98664.36;467213;112;922577;-85
2021/11/30 03:00:08;;;;;;;9.84;9.09;;;;;;;11.10;72.18;98669.24;466177;112;922652;-84
2021/11/30 03:01:12;;;;;;;9.25;8.55;;;;;;;11.07;71.16;98677.14;468423;112;930524;-85
2021/11/30 03:02:23;;;;;;;9.34;8.64;;;;;;;11.05;71.03;98687.48;467836;112;922533;-87
2021/11/30 03:03:27;;;;;;;9.20;8.49;;;;;;;11.01;70.76;98670.02;467128;112;922526;-84
2021/11/30 03:04:31;;;;;;;9.32;8.65;;;;;;;10.99;71.14;98678.45;468114;112;930969;-85
2021/11/30 03:05:35;;;;;;;9.05;8.45;;;;;;;10.98;70.97;98667.80;467199;111;923016;-85
2021/11/30 03:06:41;;;;;;;10.08;9.30;;;;;;;10.95;70.98;98680.07;467491;112;922994;-85
2021/11/30 03:07:45;;;;;;;10.24;9.47;;;;;;;10.95;70.98;98680.07;465508;112;930932;-82
2021/11/30 03:08:48;;;;;;;9.36;8.68;;;;;;;10.93;70.82;98690.41;466804;112;922879;-82
2021/11/30 03:09:53;;;;;;;9.48;8.76;;;;;;;10.90;70.51;98695.58;467124;112;922577;-84
2021/11/30 03:10:56;;;;;;;8.91;8.21;;;;;;;10.87;69.97;98691.45;466509;111;922510;-82
2021/11/30 03:12:00;;;;;;;9.14;8.42;;;;;;;10.83;70.17;98701.25;467741;111;928427;-85
2021/11/30 03:13:03;;;;;;;8.60;7.96;;;;;;;10.80;69.77;98693.61;468028;112;922515;-84
2021/11/30 03:14:07;;;;;;;9.43;8.63;;;;;;;10.76;69.94;98693.30;467393;112;922474;-85
2021/11/30 03:15:14;;;;;;;9.34;8.61;;;;;;;10.74;70.11;98694.66;467285;112;922512;-84
2021/11/30 03:16:20;;;;;;;8.99;8.32;;;;;;;10.70;70.25;98693.52;466092;111;922639;-84
2021/11/30 03:17:24;;;;;;;8.56;7.86;;;;;;;10.69;70.00;98702.80;467476;112;922382;-83
2021/11/30 03:18:28;;;;;;;9.00;8.25;;;;;;;10.66;70.01;98711.48;467398;111;922646;-83
2021/11/30 03:19:32;;;;;;;9.24;8.54;;;;;;;10.62;69.87;98713.91;467706;112;930537;-85
2021/11/30 03:20:35;;;;;;;8.81;8.18;;;;;;;10.60;69.85;98717.97;467344;111;923120;-86
2021/11/30 03:21:39;;;;;;;8.48;7.83;;;;;;;10.58;69.79;98725.60;466992;112;930542;-85
2021/11/30 03:22:43;;;;;;;8.43;7.78;;;;;;;10.55;69.85;98720.66;467464;111;930578;-84
2021/11/30 03:23:47;;;;;;;8.27;7.67;;;;;;;10.52;70.07;98724.73;466203;112;922972;-82
2021/11/30 03:24:50;;;;;;;8.67;8.07;;;;;;;10.51;69.88;98733.98;467208;112;922611;-85
2021/11/30 03:25:53;;;;;;;9.16;8.46;;;;;;;10.51;69.90;98733.98;469154;112;930717;-86
2021/11/30 03:26:57;;;;;;;8.46;7.80;;;;;;;10.50;69.89;98726.06;468090;112;922401;-85
2021/11/30 03:28:00;;;;;;;8.68;8.07;;;;;;;10.48;70.02;98731.77;466176;112;923396;-85
2021/11/30 03:29:04;;;;;;;8.21;7.61;;;;;;;10.48;69.95;98730.94;448432;115;930523;-88
2021/11/30 03:30:10;;;;;;;8.79;8.18;;;;;;;10.47;69.71;98732.05;455875;115;923052;-84
2021/11/30 03:31:33;;;;;;;8.24;7.64;;;;;;;10.45;69.77;98738.57;456845;115;922680;-85
2021/11/30 03:35:03;;;;;;;9.16;8.46;;;;;;;10.44;70.15;98749.72;451903;116;923057;-85
2021/11/30 03:36:08;;;;;;;9.05;8.42;;;;;;;10.44;70.04;98757.89;452460;115;922728;-85
2021/11/30 03:37:12;;;;;;;8.58;7.98;;;;;;;10.44;70.12;98750.55;450039;116;922629;-85
2021/11/30 03:38:15;;;;;;;9.10;8.33;;;;;;;10.44;70.11;98755.17;446423;118;922810;-83
2021/11/30 03:39:21;;;;;;;9.24;8.44;;;;;;;10.43;69.65;98751.62;451631;115;923118;-82
2021/11/30 03:40:25;;;;;;;10.45;9.73;;;;;;;10.40;69.48;98763.05;450483;116;926331;-81
2021/11/30 03:41:31;;;;;;;8.79;8.08;;;;;;;10.37;69.52;98769.00;450690;115;923066;-84
2021/11/30 03:42:34;;;;;;;9.40;8.68;;;;;;;10.35;69.55;98778.52;451855;117;930511;-83
2021/11/30 03:43:37;;;;;;;9.46;8.68;;;;;;;10.32;69.56;98782.56;449119;116;923095;-83
2021/11/30 03:44:41;;;;;;;10.06;8.98;;;;;;;10.29;69.59;98776.82;452033;115;923142;-83
2021/11/30 03:45:44;;;;;;;9.26;8.53;;;;;;;10.27;69.67;98784.41;447274;117;930571;-85
2021/11/30 03:46:49;;;;;;;8.44;7.86;;;;;;;10.24;69.70;98791.22;449964;116;922740;-85
2021/11/30 03:47:52;;;;;;;9.96;9.19;;;;;;;10.22;69.74;98782.47;448653;115;930566;-85
2021/11/30 03:48:56;;;;;;;9.91;9.12;;;;;;;10.20;69.74;98786.54;454402;115;922958;-85
2021/11/30 03:49:59;;;;;;;9.33;8.64;;;;;;;10.18;69.67;98785.97;454174;115;927064;-86
2021/11/30 03:51:03;;;;;;;8.80;8.13;;;;;;;10.15;69.56;98794.59;445398;117;922948;-82
2021/11/30 03:52:07;;;;;;;8.54;7.94;;;;;;;10.12;69.46;98790.50;458184;113;930603;-84
2021/11/30 03:53:10;;;;;;;8.56;7.94;;;;;;;10.09;69.46;98790.99;450745;117;922936;-82
2021/11/30 03:54:16;;;;;;;8.74;8.05;;;;;;;10.06;69.51;98791.52;449350;117;930836;-84
2021/11/30 03:55:20;;;;;;;9.24;8.56;;;;;;;10.04;69.59;98794.48;448942;116;922323;-84
2021/11/30 03:56:26;;;;;;;8.57;7.92;;;;;;;10.02;69.73;98795.84;465628;113;922696;-83
2021/11/30 03:57:29;;;;;;;8.69;7.99;;;;;;;10.01;69.82;98807.80;465684;112;922420;-82
2021/11/30 03:58:33;;;;;;;9.71;9.01;;;;;;;9.99;69.83;98807.22;465758;113;922143;-82
2021/11/30 03:59:36;;;;;;;8.67;7.94;;;;;;;9.95;69.77;98817.80;466256;113;922918;-83
2021/11/30 04:00:40;;;;;;;9.18;8.08;;;;;;;9.93;70.04;98824.56;466285;112;922384;-84
2021/11/30 04:01:44;;;;;;;9.16;8.48;;;;;;;9.93;70.04;98824.56;466969;111;930245;-83
2021/11/30 04:02:47;;;;;;;8.88;8.16;;;;;;;9.93;70.07;98827.29;466681;112;922508;-82
2021/11/30 04:03:52;;;;;;;9.15;8.45;;;;;;;9.93;70.17;98830.01;465138;113;922818;-84
2021/11/30 04:04:55;;;;;;;9.00;8.34;;;;;;;9.92;70.17;98829.19;465707;112;922558;-84
2021/11/30 04:05:59;;;;;;;9.08;8.28;;;;;;;9.93;70.19;98830.01;466091;113;922439;-83
2021/11/30 04:07:03;;;;;;;9.04;8.38;;;;;;;9.94;70.25;98842.55;458023;115;922907;-83
2021/11/30 04:08:06;;;;;;;9.88;9.06;;;;;;;9.94;70.23;98835.21;457317;113;922728;-83
2021/11/30 04:09:09;;;;;;;9.91;9.22;;;;;;;9.95;70.14;98836.03;465458;112;922920;-84
2021/11/30 04:10:13;;;;;;;9.52;8.84;;;;;;;9.96;70.19;98848.58;466684;113;923276;-83
2021/11/30 04:11:20;;;;;;;9.44;8.74;;;;;;;9.96;70.13;98851.30;465890;113;922929;-84
2021/11/30 04:12:23;;;;;;;8.84;8.21;;;;;;;9.96;70.16;98851.30;465822;112;930621;-83
2021/11/30 04:13:26;;;;;;;8.46;7.85;;;;;;;9.96;70.05;98846.68;465854;112;922829;-83
2021/11/30 04:14:30;;;;;;;10.02;9.21;;;;;;;9.97;69.99;98848.33;464954;113;922562;-84
2021/11/30 04:15:33;;;;;;;9.42;8.63;;;;;;;9.97;69.76;98851.05;466025;111;922601;-82
2021/11/30 04:16:37;;;;;;;9.42;8.62;;;;;;;9.95;69.56;98855.09;465325;113;922616;-83
2021/11/30 04:17:41;;;;;;;9.84;8.99;;;;;;;9.94;69.50;98858.89;457137;115;922785;-82
2021/11/30 04:18:44;;;;;;;8.91;8.19;;;;;;;9.91;69.27;98856.69;457703;113;930699;-83
2021/11/30 04:19:48;;;;;;;9.16;8.46;;;;;;;9.88;69.26;98857.17;465107;112;922487;-84
2021/11/30 04:20:52;;;;;;;8.31;7.67;;;;;;;9.84;69.15;98864.20;466127;113;922923;-84
2021/11/30 04:21:56;;;;;;;9.25;8.65;;;;;;;9.81;69.10;98860.10;466440;113;922714;-80
2021/11/30 04:23:00;;;;;;;8.18;7.61;;;;;;;9.77;69.05;98869.82;465522;113;922556;-82
2021/11/30 04:24:04;;;;;;;9.54;8.78;;;;;;;9.73;69.13;98868.69;465837;112;922586;-85
2021/11/30 04:25:10;;;;;;;9.08;8.26;;;;;;;9.71;69.32;98875.44;465355;111;923145;-82
2021/11/30 04:26:15;;;;;;;8.35;7.73;;;;;;;9.67;69.31;98861.52;465650;113;923025;-86
2021/11/30 04:27:18;;;;;;;8.25;7.54;;;;;;;9.66;69.23;98868.03;466423;112;922539;-82
2021/11/30 04:28:22;;;;;;;8.84;8.14;;;;;;;9.63;69.17;98873.98;465478;113;922539;-82
2021/11/30 04:29:26;;;;;;;9.07;8.42;;;;;;;9.63;69.17;98873.98;465122;111;930410;-83
2021/11/30 04:30:30;;;;;;;7.94;7.33;;;;;;;9.62;69.37;98875.88;465742;113;922641;-81
2021/11/30 04:31:35;;;;;;;7.61;7.11;;;;;;;9.61;69.24;98871.51;465450;113;923078;-86
2021/11/30 04:32:39;;;;;;;7.17;6.66;;;;;;;9.60;69.19;98880.73;465911;113;923190;-84
2021/11/30 04:33:43;;;;;;;5.82;5.41;;;;;;;9.57;69.00;98883.98;466067;112;922451;-83
2021/11/30 04:34:46;;;;;;;5.96;5.36;;;;;;;9.54;68.67;98883.63;464598;112;922469;-86
2021/11/30 04:35:49;;;;;;;4.28;3.98;;;;;;;9.48;68.19;98880.01;465127;111;922634;-81
2021/11/30 04:36:53;;;;;;;5.97;4.34;;;;;;;9.44;68.06;98883.48;466952;113;923123;-83
2021/11/30 04:37:56;;;;;;;4.90;4.50;;;;;;;9.39;67.96;98894.28;466548;111;930527;-82
2021/11/30 04:39:00;;;;;;;4.66;4.26;;;;;;;9.35;67.54;98893.97;449263;116;930506;-85
2021/11/30 04:40:06;;;;;;;4.34;4.02;;;;;;;9.32;67.74;98888.21;466416;113;922948;-83
2021/11/30 04:41:09;;;;;;;4.71;3.91;;;;;;;9.28;67.62;98895.20;466564;111;930221;-83
2021/11/30 04:42:13;;;;;;;4.21;3.67;;;;;;;9.25;67.61;98892.98;465620;113;922772;-82
2021/11/30 04:43:17;;;;;;;3.66;3.43;;;;;;;9.21;67.72;98904.34;466131;112;924219;-86
2021/11/30 04:44:21;;;;;;;3.52;3.22;;;;;;;9.19;67.33;98916.55;465967;113;923127;-84
2021/11/30 04:45:28;;;;;;;3.69;3.35;;;;;;;9.16;67.25;98912.41;467503;111;930738;-85
2021/11/30 04:46:39;;;;;;;3.82;3.51;;;;;;;9.12;67.23;98908.55;467262;112;922576;-83
2021/11/30 04:47:38;;;;;;;3.99;3.69;;;;;;;9.08;67.29;98915.55;465949;111;922234;-85
2021/11/30 04:48:43;;;;;;;3.93;3.61;;;;;;;9.04;67.33;98917.09;465421;113;922365;-82
2021/11/30 04:49:59;;;;;;;3.89;3.59;;;;;;;8.99;67.23;98922.44;466741;113;922533;-84
2021/11/30 04:51:02;;;;;;;3.54;3.24;;;;;;;8.94;67.07;98929.69;465871;113;922674;-82
2021/11/30 04:52:10;;;;;;;3.61;3.31;;;;;;;8.88;67.16;98933.37;466250;113;922605;-84
2021/11/30 04:53:13;;;;;;;5.85;3.19;;;;;;;8.83;67.11;98936.83;466021;113;922531;-85
2021/11/30 04:54:17;;;;;;;3.86;3.51;;;;;;;8.77;67.04;98944.06;465978;111;923024;-84
2021/11/30 04:55:30;;;;;;;4.34;3.27;;;;;;;8.71;67.20;98942.31;466855;111;923366;-85
2021/11/30 04:56:32;;;;;;;3.76;3.46;;;;;;;8.66;67.27;98941.39;466223;113;923207;-81
2021/11/30 04:57:36;;;;;;;3.56;3.26;;;;;;;8.61;67.33;98949.44;465426;112;922746;-84
2021/11/30 04:58:40;;;;;;;3.66;3.36;;;;;;;8.58;67.42;98941.79;466783;113;922715;-82
2021/11/30 04:59:44;;;;;;;3.52;3.25;;;;;;;8.56;67.47;98943.91;466259;112;930570;-84
2021/11/30 05:00:48;;;;;;;3.50;3.28;;;;;;;8.54;67.68;98940.63;465286;111;923500;-84
2021/11/30 05:01:53;;;;;;;3.30;3.06;;;;;;;8.52;67.74;98959.88;465217;111;923392;-83
2021/11/30 05:02:57;;;;;;;4.26;3.96;;;;;;;8.53;67.91;98966.97;465467;113;923208;-82
2021/11/30 05:04:01;;;;;;;4.25;3.95;;;;;;;8.54;67.94;98959.64;466539;112;922646;-81
2021/11/30 05:05:05;;;;;;;4.51;3.65;;;;;;;8.55;68.01;98970.25;465726;111;922737;-80
2021/11/30 05:06:10;;;;;;;3.45;3.19;;;;;;;8.55;68.03;98970.25;465414;113;930610;-86